sensor_id;sensor_type;location;lat;lon;timestamp;P1;durP1;ratioP1;P2;durP2;ratioP2
31818;SDS011;18384;48.860;9.188;2022-12-15T00:01:41;40.95;;;25.45;;
31818;SDS011;18384;48.860;9.188;2022-12-15T00:04:26;44.03;;;24.90;;
31818;SDS011;18384;48.860;9.188;2022-12-15T00:07:11;44.00;;;25.48;;
31818;SDS011;18384;48.860;9.188;2022-12-15T00:09:56;44.70;;;24.98;;
31818;SDS011;18384;48.860;9.188;2022-12-15T00:12:40;44.17;;;25.48;;
31818;SDS011;18384;48.860;9.188;2022-12-15T00:15:25;46.33;;;26.23;;
31818;SDS011;18384;48.860;9.188;2022-12-15T00:18:10;45.20;;;25.25;;
31818;SDS011;18384;48.860;9.188;2022-12-15T00:20:57;46.03;;;26.48;;
31818;SDS011;18384;48.860;9.188;2022-12-15T00:23:42;48.70;;;25.40;;
31818;SDS011;18384;48.860;9.188;2022-12-15T00:26:27;45.65;;;24.45;;
31818;SDS011;18384;48.860;9.188;2022-12-15T00:29:12;49.83;;;25.45;;
31818;SDS011;18384;48.860;9.188;2022-12-15T00:31:56;42.92;;;24.48;;
31818;SDS011;18384;48.860;9.188;2022-12-15T00:34:41;46.00;;;25.60;;
31818;SDS011;18384;48.860;9.188;2022-12-15T00:37:26;45.20;;;25.90;;
31818;SDS011;18384;48.860;9.188;2022-12-15T00:40:11;48.15;;;26.48;;
31818;SDS011;18384;48.860;9.188;2022-12-15T00:42:37;42.25;;;25.75;;
31818;SDS011;18384;48.860;9.188;2022-12-15T00:45:03;50.28;;;26.23;;
31818;SDS011;18384;48.860;9.188;2022-12-15T00:47:31;42.97;;;26.83;;
31818;SDS011;18384;48.860;9.188;2022-12-15T00:49:58;46.40;;;25.37;;
31818;SDS011;18384;48.860;9.188;2022-12-15T00:52:42;41.15;;;24.67;;
31818;SDS011;18384;48.860;9.188;2022-12-15T00:55:27;50.78;;;27.15;;
31818;SDS011;18384;48.860;9.188;2022-12-15T00:58:12;48.92;;;24.73;;
31818;SDS011;18384;48.860;9.188;2022-12-15T01:00:56;48.65;;;27.60;;
31818;SDS011;18384;48.860;9.188;2022-12-15T01:03:41;46.30;;;26.25;;
31818;SDS011;18384;48.860;9.188;2022-12-15T01:06:26;48.80;;;25.60;;
31818;SDS011;18384;48.860;9.188;2022-12-15T01:09:11;48.13;;;25.37;;
31818;SDS011;18384;48.860;9.188;2022-12-15T01:11:56;44.33;;;23.30;;
31818;SDS011;18384;48.860;9.188;2022-12-15T01:14:41;45.90;;;25.30;;
31818;SDS011;18384;48.860;9.188;2022-12-15T01:17:25;44.58;;;25.45;;
31818;SDS011;18384;48.860;9.188;2022-12-15T01:20:10;45.05;;;25.95;;
31818;SDS011;18384;48.860;9.188;2022-12-15T01:22:46;37.00;;;22.77;;
31818;SDS011;18384;48.860;9.188;2022-12-15T01:25:17;44.33;;;26.00;;
31818;SDS011;18384;48.860;9.188;2022-12-15T01:27:45;49.17;;;25.48;;
31818;SDS011;18384;48.860;9.188;2022-12-15T01:30:13;46.50;;;27.08;;
31818;SDS011;18384;48.860;9.188;2022-12-15T01:32:44;44.88;;;25.98;;
31818;SDS011;18384;48.860;9.188;2022-12-15T01:35:10;44.22;;;26.48;;
31818;SDS011;18384;48.860;9.188;2022-12-15T01:37:36;45.65;;;26.23;;
31818;SDS011;18384;48.860;9.188;2022-12-15T01:42:49;48.72;;;24.20;;
31818;SDS011;18384;48.860;9.188;2022-12-15T01:49:37;46.00;;;23.80;;
31818;SDS011;18384;48.860;9.188;2022-12-15T01:52:05;45.78;;;25.83;;
31818;SDS011;18384;48.860;9.188;2022-12-15T01:54:37;45.58;;;24.67;;
31818;SDS011;18384;48.860;9.188;2022-12-15T01:57:19;46.47;;;25.73;;
31818;SDS011;18384;48.860;9.188;2022-12-15T01:59:55;48.40;;;26.80;;
31818;SDS011;18384;48.860;9.188;2022-12-15T02:02:25;47.75;;;26.77;;
31818;SDS011;18384;48.860;9.188;2022-12-15T02:04:55;44.58;;;25.65;;
31818;SDS011;18384;48.860;9.188;2022-12-15T02:07:24;47.17;;;26.02;;
31818;SDS011;18384;48.860;9.188;2022-12-15T02:09:52;45.67;;;25.48;;
31818;SDS011;18384;48.860;9.188;2022-12-15T02:12:40;47.65;;;25.15;;
31818;SDS011;18384;48.860;9.188;2022-12-15T02:15:41;51.03;;;26.48;;
31818;SDS011;18384;48.860;9.188;2022-12-15T02:18:19;46.88;;;26.45;;
31818;SDS011;18384;48.860;9.188;2022-12-15T02:21:19;47.30;;;27.05;;
31818;SDS011;18384;48.860;9.188;2022-12-15T02:24:04;50.67;;;26.25;;
31818;SDS011;18384;48.860;9.188;2022-12-15T02:30:23;48.35;;;25.67;;
31818;SDS011;18384;48.860;9.188;2022-12-15T02:33:13;53.28;;;27.02;;
31818;SDS011;18384;48.860;9.188;2022-12-15T02:36:34;47.00;;;26.85;;
31818;SDS011;18384;48.860;9.188;2022-12-15T02:39:05;50.47;;;27.02;;
31818;SDS011;18384;48.860;9.188;2022-12-15T02:41:32;51.63;;;26.87;;
31818;SDS011;18384;48.860;9.188;2022-12-15T02:44:27;49.05;;;26.95;;
31818;SDS011;18384;48.860;9.188;2022-12-15T02:47:03;48.08;;;27.30;;
31818;SDS011;18384;48.860;9.188;2022-12-15T02:50:26;46.60;;;24.67;;
31818;SDS011;18384;48.860;9.188;2022-12-15T02:53:26;51.25;;;26.70;;
31818;SDS011;18384;48.860;9.188;2022-12-15T02:59:07;55.92;;;28.08;;
31818;SDS011;18384;48.860;9.188;2022-12-15T03:02:20;47.65;;;26.80;;
31818;SDS011;18384;48.860;9.188;2022-12-15T03:04:50;51.15;;;25.85;;
31818;SDS011;18384;48.860;9.188;2022-12-15T03:07:17;53.00;;;27.05;;
31818;SDS011;18384;48.860;9.188;2022-12-15T03:09:43;51.60;;;26.92;;
31818;SDS011;18384;48.860;9.188;2022-12-15T03:12:10;52.50;;;27.23;;
31818;SDS011;18384;48.860;9.188;2022-12-15T03:14:36;58.38;;;27.58;;
31818;SDS011;18384;48.860;9.188;2022-12-15T03:17:02;46.28;;;26.73;;
31818;SDS011;18384;48.860;9.188;2022-12-15T03:19:31;51.88;;;26.55;;
31818;SDS011;18384;48.860;9.188;2022-12-15T03:21:57;49.80;;;26.60;;
31818;SDS011;18384;48.860;9.188;2022-12-15T03:24:24;49.55;;;26.52;;
31818;SDS011;18384;48.860;9.188;2022-12-15T03:26:50;55.83;;;28.23;;
31818;SDS011;18384;48.860;9.188;2022-12-15T03:29:16;48.17;;;27.00;;
31818;SDS011;18384;48.860;9.188;2022-12-15T03:31:42;50.70;;;27.75;;
31818;SDS011;18384;48.860;9.188;2022-12-15T03:34:09;53.50;;;27.08;;
31818;SDS011;18384;48.860;9.188;2022-12-15T03:36:35;53.20;;;28.17;;
31818;SDS011;18384;48.860;9.188;2022-12-15T03:39:01;49.08;;;25.80;;
31818;SDS011;18384;48.860;9.188;2022-12-15T03:41:28;56.72;;;27.62;;
31818;SDS011;18384;48.860;9.188;2022-12-15T03:43:54;55.20;;;27.98;;
31818;SDS011;18384;48.860;9.188;2022-12-15T03:46:20;46.70;;;26.62;;
31818;SDS011;18384;48.860;9.188;2022-12-15T03:48:46;52.03;;;28.58;;
31818;SDS011;18384;48.860;9.188;2022-12-15T03:51:13;54.08;;;28.00;;
31818;SDS011;18384;48.860;9.188;2022-12-15T03:53:39;51.65;;;27.62;;
31818;SDS011;18384;48.860;9.188;2022-12-15T03:56:05;55.67;;;28.80;;
31818;SDS011;18384;48.860;9.188;2022-12-15T03:58:32;46.55;;;27.42;;
31818;SDS011;18384;48.860;9.188;2022-12-15T04:00:58;47.92;;;27.20;;
31818;SDS011;18384;48.860;9.188;2022-12-15T04:03:43;50.85;;;26.75;;
31818;SDS011;18384;48.860;9.188;2022-12-15T04:06:09;53.65;;;27.70;;
31818;SDS011;18384;48.860;9.188;2022-12-15T04:08:35;56.53;;;27.75;;
31818;SDS011;18384;48.860;9.188;2022-12-15T04:11:01;51.17;;;28.35;;
31818;SDS011;18384;48.860;9.188;2022-12-15T04:13:27;52.17;;;27.25;;
31818;SDS011;18384;48.860;9.188;2022-12-15T04:18:20;53.35;;;27.13;;
31818;SDS011;18384;48.860;9.188;2022-12-15T04:20:46;56.75;;;27.73;;
31818;SDS011;18384;48.860;9.188;2022-12-15T04:23:12;52.25;;;27.37;;
31818;SDS011;18384;48.860;9.188;2022-12-15T04:25:38;51.20;;;27.65;;
31818;SDS011;18384;48.860;9.188;2022-12-15T04:28:23;54.22;;;28.08;;
31818;SDS011;18384;48.860;9.188;2022-12-15T04:31:08;49.67;;;27.45;;
31818;SDS011;18384;48.860;9.188;2022-12-15T04:34:07;58.92;;;27.00;;
31818;SDS011;18384;48.860;9.188;2022-12-15T04:37:00;56.47;;;27.65;;
31818;SDS011;18384;48.860;9.188;2022-12-15T04:39:46;54.88;;;28.83;;
31818;SDS011;18384;48.860;9.188;2022-12-15T04:42:34;54.15;;;27.20;;
31818;SDS011;18384;48.860;9.188;2022-12-15T04:45:22;56.90;;;29.35;;
31818;SDS011;18384;48.860;9.188;2022-12-15T04:48:08;52.03;;;25.98;;
31818;SDS011;18384;48.860;9.188;2022-12-15T04:50:53;57.17;;;28.27;;
31818;SDS011;18384;48.860;9.188;2022-12-15T04:53:38;51.50;;;26.92;;
31818;SDS011;18384;48.860;9.188;2022-12-15T04:56:23;53.03;;;26.48;;
31818;SDS011;18384;48.860;9.188;2022-12-15T04:59:07;54.58;;;26.48;;
31818;SDS011;18384;48.860;9.188;2022-12-15T05:01:52;47.80;;;26.60;;
31818;SDS011;18384;48.860;9.188;2022-12-15T05:04:37;54.75;;;27.70;;
31818;SDS011;18384;48.860;9.188;2022-12-15T05:07:22;52.80;;;26.75;;
31818;SDS011;18384;48.860;9.188;2022-12-15T05:10:08;58.10;;;27.83;;
31818;SDS011;18384;48.860;9.188;2022-12-15T05:12:54;50.20;;;26.12;;
31818;SDS011;18384;48.860;9.188;2022-12-15T05:15:42;49.20;;;25.95;;
31818;SDS011;18384;48.860;9.188;2022-12-15T05:18:26;51.47;;;26.95;;
31818;SDS011;18384;48.860;9.188;2022-12-15T05:21:11;47.10;;;25.50;;
31818;SDS011;18384;48.860;9.188;2022-12-15T05:23:55;50.35;;;26.90;;
31818;SDS011;18384;48.860;9.188;2022-12-15T05:26:40;50.63;;;25.67;;
31818;SDS011;18384;48.860;9.188;2022-12-15T05:29:25;48.63;;;26.37;;
31818;SDS011;18384;48.860;9.188;2022-12-15T05:32:09;51.55;;;26.23;;
31818;SDS011;18384;48.860;9.188;2022-12-15T05:34:37;50.45;;;26.10;;
31818;SDS011;18384;48.860;9.188;2022-12-15T05:37:04;54.47;;;28.02;;
31818;SDS011;18384;48.860;9.188;2022-12-15T05:39:31;55.92;;;27.33;;
31818;SDS011;18384;48.860;9.188;2022-12-15T05:41:58;55.15;;;27.45;;
31818;SDS011;18384;48.860;9.188;2022-12-15T05:46:52;52.35;;;25.73;;
31818;SDS011;18384;48.860;9.188;2022-12-15T05:49:18;48.30;;;26.85;;
31818;SDS011;18384;48.860;9.188;2022-12-15T05:51:44;55.20;;;27.30;;
31818;SDS011;18384;48.860;9.188;2022-12-15T05:54:13;51.37;;;26.67;;
31818;SDS011;18384;48.860;9.188;2022-12-15T05:56:42;55.38;;;29.75;;
31818;SDS011;18384;48.860;9.188;2022-12-15T05:59:09;51.10;;;26.95;;
31818;SDS011;18384;48.860;9.188;2022-12-15T06:04:01;52.88;;;25.70;;
31818;SDS011;18384;48.860;9.188;2022-12-15T06:06:28;55.58;;;28.25;;
31818;SDS011;18384;48.860;9.188;2022-12-15T06:08:54;56.95;;;27.02;;
31818;SDS011;18384;48.860;9.188;2022-12-15T06:11:20;45.55;;;23.92;;
31818;SDS011;18384;48.860;9.188;2022-12-15T06:16:14;55.10;;;26.52;;
31818;SDS011;18384;48.860;9.188;2022-12-15T06:18:44;52.53;;;25.92;;
31818;SDS011;18384;48.860;9.188;2022-12-15T06:21:14;47.47;;;25.50;;
31818;SDS011;18384;48.860;9.188;2022-12-15T06:23:44;48.87;;;26.10;;
31818;SDS011;18384;48.860;9.188;2022-12-15T06:26:20;49.92;;;25.55;;
31818;SDS011;18384;48.860;9.188;2022-12-15T06:28:49;50.80;;;25.65;;
31818;SDS011;18384;48.860;9.188;2022-12-15T06:31:19;49.72;;;25.62;;
31818;SDS011;18384;48.860;9.188;2022-12-15T06:33:49;51.13;;;26.37;;
31818;SDS011;18384;48.860;9.188;2022-12-15T06:36:17;59.15;;;29.10;;
31818;SDS011;18384;48.860;9.188;2022-12-15T06:38:43;51.97;;;27.58;;
31818;SDS011;18384;48.860;9.188;2022-12-15T06:41:11;49.65;;;26.90;;
31818;SDS011;18384;48.860;9.188;2022-12-15T06:43:40;58.63;;;27.67;;
31818;SDS011;18384;48.860;9.188;2022-12-15T06:46:06;48.60;;;27.02;;
31818;SDS011;18384;48.860;9.188;2022-12-15T06:48:33;58.08;;;28.65;;
31818;SDS011;18384;48.860;9.188;2022-12-15T06:51:03;54.25;;;27.50;;
31818;SDS011;18384;48.860;9.188;2022-12-15T06:53:34;54.22;;;28.00;;
31818;SDS011;18384;48.860;9.188;2022-12-15T06:56:03;56.00;;;27.70;;
31818;SDS011;18384;48.860;9.188;2022-12-15T06:58:32;53.70;;;27.85;;
31818;SDS011;18384;48.860;9.188;2022-12-15T07:01:03;53.50;;;26.37;;
31818;SDS011;18384;48.860;9.188;2022-12-15T07:03:33;55.28;;;27.58;;
31818;SDS011;18384;48.860;9.188;2022-12-15T07:06:01;53.83;;;25.88;;
31818;SDS011;18384;48.860;9.188;2022-12-15T07:08:29;53.50;;;27.05;;
31818;SDS011;18384;48.860;9.188;2022-12-15T07:10:56;52.83;;;26.92;;
31818;SDS011;18384;48.860;9.188;2022-12-15T07:15:48;57.03;;;26.05;;
31818;SDS011;18384;48.860;9.188;2022-12-15T07:18:15;61.08;;;30.20;;
31818;SDS011;18384;48.860;9.188;2022-12-15T07:20:42;64.62;;;29.48;;
31818;SDS011;18384;48.860;9.188;2022-12-15T07:23:08;58.87;;;27.62;;
31818;SDS011;18384;48.860;9.188;2022-12-15T07:25:35;53.45;;;27.00;;
31818;SDS011;18384;48.860;9.188;2022-12-15T07:28:02;60.67;;;28.40;;
31818;SDS011;18384;48.860;9.188;2022-12-15T07:30:28;53.87;;;27.25;;
31818;SDS011;18384;48.860;9.188;2022-12-15T07:32:54;53.28;;;27.00;;
31818;SDS011;18384;48.860;9.188;2022-12-15T07:35:20;53.53;;;27.50;;
31818;SDS011;18384;48.860;9.188;2022-12-15T07:37:47;51.37;;;25.45;;
31818;SDS011;18384;48.860;9.188;2022-12-15T07:40:13;55.38;;;28.25;;
31818;SDS011;18384;48.860;9.188;2022-12-15T07:42:39;53.75;;;27.27;;
31818;SDS011;18384;48.860;9.188;2022-12-15T07:45:05;55.30;;;27.27;;
31818;SDS011;18384;48.860;9.188;2022-12-15T07:47:32;52.62;;;27.85;;
31818;SDS011;18384;48.860;9.188;2022-12-15T07:49:59;59.83;;;27.37;;
31818;SDS011;18384;48.860;9.188;2022-12-15T07:52:25;53.67;;;27.05;;
31818;SDS011;18384;48.860;9.188;2022-12-15T07:54:51;56.88;;;28.52;;
31818;SDS011;18384;48.860;9.188;2022-12-15T07:57:17;52.03;;;27.45;;
31818;SDS011;18384;48.860;9.188;2022-12-15T07:59:44;59.22;;;27.15;;
31818;SDS011;18384;48.860;9.188;2022-12-15T08:02:10;55.28;;;25.45;;
31818;SDS011;18384;48.860;9.188;2022-12-15T08:04:38;57.10;;;26.77;;
31818;SDS011;18384;48.860;9.188;2022-12-15T08:07:05;55.40;;;25.00;;
31818;SDS011;18384;48.860;9.188;2022-12-15T08:09:33;60.28;;;26.73;;
31818;SDS011;18384;48.860;9.188;2022-12-15T08:11:59;59.47;;;28.67;;
31818;SDS011;18384;48.860;9.188;2022-12-15T08:14:26;74.18;;;33.22;;
31818;SDS011;18384;48.860;9.188;2022-12-15T08:16:56;52.95;;;26.00;;
31818;SDS011;18384;48.860;9.188;2022-12-15T08:19:22;63.38;;;30.33;;
31818;SDS011;18384;48.860;9.188;2022-12-15T08:21:48;47.53;;;25.05;;
31818;SDS011;18384;48.860;9.188;2022-12-15T08:26:41;49.27;;;24.70;;
31818;SDS011;18384;48.860;9.188;2022-12-15T08:29:10;50.38;;;24.48;;
31818;SDS011;18384;48.860;9.188;2022-12-15T08:31:38;51.30;;;24.95;;
31818;SDS011;18384;48.860;9.188;2022-12-15T08:34:05;55.65;;;26.60;;
31818;SDS011;18384;48.860;9.188;2022-12-15T08:36:31;58.13;;;25.08;;
31818;SDS011;18384;48.860;9.188;2022-12-15T08:38:59;57.88;;;26.27;;
31818;SDS011;18384;48.860;9.188;2022-12-15T08:41:27;50.83;;;24.60;;
31818;SDS011;18384;48.860;9.188;2022-12-15T08:43:56;47.60;;;25.00;;
31818;SDS011;18384;48.860;9.188;2022-12-15T08:46:25;54.28;;;24.58;;
31818;SDS011;18384;48.860;9.188;2022-12-15T08:48:57;50.58;;;24.63;;
31818;SDS011;18384;48.860;9.188;2022-12-15T08:51:25;50.10;;;24.77;;
31818;SDS011;18384;48.860;9.188;2022-12-15T08:53:53;49.30;;;23.75;;
31818;SDS011;18384;48.860;9.188;2022-12-15T08:56:21;50.33;;;24.45;;
31818;SDS011;18384;48.860;9.188;2022-12-15T08:58:49;48.75;;;24.35;;
31818;SDS011;18384;48.860;9.188;2022-12-15T09:01:20;45.28;;;22.00;;
31818;SDS011;18384;48.860;9.188;2022-12-15T09:03:49;53.55;;;24.95;;
31818;SDS011;18384;48.860;9.188;2022-12-15T09:06:23;53.15;;;23.70;;
31818;SDS011;18384;48.860;9.188;2022-12-15T09:08:54;48.47;;;22.67;;
31818;SDS011;18384;48.860;9.188;2022-12-15T09:11:22;45.70;;;23.90;;
31818;SDS011;18384;48.860;9.188;2022-12-15T09:13:49;48.10;;;23.27;;
31818;SDS011;18384;48.860;9.188;2022-12-15T09:18:44;54.95;;;23.10;;
31818;SDS011;18384;48.860;9.188;2022-12-15T09:21:13;54.67;;;22.75;;
31818;SDS011;18384;48.860;9.188;2022-12-15T09:23:41;47.08;;;24.12;;
31818;SDS011;18384;48.860;9.188;2022-12-15T09:26:12;45.53;;;24.12;;
31818;SDS011;18384;48.860;9.188;2022-12-15T09:28:40;51.15;;;24.52;;
31818;SDS011;18384;48.860;9.188;2022-12-15T09:31:10;54.17;;;26.20;;
31818;SDS011;18384;48.860;9.188;2022-12-15T09:33:46;53.85;;;25.15;;
31818;SDS011;18384;48.860;9.188;2022-12-15T09:36:14;52.00;;;24.08;;
31818;SDS011;18384;48.860;9.188;2022-12-15T09:38:41;48.72;;;24.17;;
31818;SDS011;18384;48.860;9.188;2022-12-15T09:41:19;49.50;;;24.83;;
31818;SDS011;18384;48.860;9.188;2022-12-15T09:43:55;48.67;;;23.38;;
31818;SDS011;18384;48.860;9.188;2022-12-15T09:46:47;47.13;;;24.98;;
31818;SDS011;18384;48.860;9.188;2022-12-15T09:50:00;50.55;;;24.10;;
31818;SDS011;18384;48.860;9.188;2022-12-15T09:52:34;51.55;;;24.02;;
31818;SDS011;18384;48.860;9.188;2022-12-15T09:55:28;47.10;;;24.05;;
31818;SDS011;18384;48.860;9.188;2022-12-15T09:58:01;49.05;;;23.87;;
31818;SDS011;18384;48.860;9.188;2022-12-15T10:01:55;49.28;;;23.80;;
31818;SDS011;18384;48.860;9.188;2022-12-15T10:07:50;49.72;;;24.17;;
31818;SDS011;18384;48.860;9.188;2022-12-15T10:10:21;45.45;;;23.48;;
31818;SDS011;18384;48.860;9.188;2022-12-15T10:13:16;64.57;;;28.98;;
31818;SDS011;18384;48.860;9.188;2022-12-15T10:17:22;58.70;;;26.50;;
31818;SDS011;18384;48.860;9.188;2022-12-15T10:20:23;48.20;;;24.40;;
31818;SDS011;18384;48.860;9.188;2022-12-15T10:23:16;53.20;;;25.77;;
31818;SDS011;18384;48.860;9.188;2022-12-15T10:25:47;51.75;;;23.85;;
31818;SDS011;18384;48.860;9.188;2022-12-15T10:28:45;49.97;;;23.67;;
31818;SDS011;18384;48.860;9.188;2022-12-15T10:31:49;48.30;;;23.23;;
31818;SDS011;18384;48.860;9.188;2022-12-15T10:34:32;44.90;;;23.67;;
31818;SDS011;18384;48.860;9.188;2022-12-15T10:37:02;45.53;;;24.73;;
31818;SDS011;18384;48.860;9.188;2022-12-15T10:42:14;91.40;;;31.90;;
31818;SDS011;18384;48.860;9.188;2022-12-15T10:44:49;62.72;;;25.95;;
31818;SDS011;18384;48.860;9.188;2022-12-15T10:47:20;47.95;;;25.17;;
31818;SDS011;18384;48.860;9.188;2022-12-15T10:50:15;77.90;;;31.08;;
31818;SDS011;18384;48.860;9.188;2022-12-15T10:52:47;55.85;;;27.87;;
31818;SDS011;18384;48.860;9.188;2022-12-15T10:58:17;54.50;;;26.62;;
31818;SDS011;18384;48.860;9.188;2022-12-15T11:01:03;56.53;;;27.95;;
31818;SDS011;18384;48.860;9.188;2022-12-15T11:03:39;55.63;;;26.45;;
31818;SDS011;18384;48.860;9.188;2022-12-15T11:06:11;52.58;;;24.52;;
31818;SDS011;18384;48.860;9.188;2022-12-15T11:08:43;49.35;;;24.12;;
31818;SDS011;18384;48.860;9.188;2022-12-15T11:11:28;44.90;;;23.23;;
31818;SDS011;18384;48.860;9.188;2022-12-15T11:14:23;45.67;;;24.20;;
31818;SDS011;18384;48.860;9.188;2022-12-15T11:16:58;51.13;;;24.45;;
31818;SDS011;18384;48.860;9.188;2022-12-15T11:19:34;52.85;;;24.98;;
31818;SDS011;18384;48.860;9.188;2022-12-15T11:22:52;45.95;;;23.98;;
31818;SDS011;18384;48.860;9.188;2022-12-15T11:25:30;47.92;;;23.55;;
31818;SDS011;18384;48.860;9.188;2022-12-15T11:28:14;48.47;;;25.62;;
31818;SDS011;18384;48.860;9.188;2022-12-15T11:30:52;42.78;;;24.15;;
31818;SDS011;18384;48.860;9.188;2022-12-15T11:33:29;48.85;;;25.65;;
31818;SDS011;18384;48.860;9.188;2022-12-15T11:36:34;45.50;;;25.10;;
31818;SDS011;18384;48.860;9.188;2022-12-15T11:39:33;42.95;;;22.83;;
31818;SDS011;18384;48.860;9.188;2022-12-15T11:54:14;58.22;;;27.80;;
31818;SDS011;18384;48.860;9.188;2022-12-15T11:57:39;51.40;;;24.90;;
31818;SDS011;18384;48.860;9.188;2022-12-15T12:00:26;43.05;;;23.17;;
31818;SDS011;18384;48.860;9.188;2022-12-15T12:03:06;46.65;;;24.08;;
31818;SDS011;18384;48.860;9.188;2022-12-15T12:06:14;46.63;;;24.02;;
31818;SDS011;18384;48.860;9.188;2022-12-15T12:09:40;47.00;;;23.98;;
31818;SDS011;18384;48.860;9.188;2022-12-15T12:13:14;45.78;;;24.55;;
31818;SDS011;18384;48.860;9.188;2022-12-15T12:23:54;46.30;;;24.05;;
31818;SDS011;18384;48.860;9.188;2022-12-15T12:27:59;45.30;;;23.25;;
31818;SDS011;18384;48.860;9.188;2022-12-15T12:30:41;41.97;;;22.83;;
31818;SDS011;18384;48.860;9.188;2022-12-15T12:33:24;42.03;;;23.30;;
31818;SDS011;18384;48.860;9.188;2022-12-15T12:36:12;46.88;;;24.50;;
31818;SDS011;18384;48.860;9.188;2022-12-15T12:38:46;45.65;;;25.55;;
31818;SDS011;18384;48.860;9.188;2022-12-15T12:41:35;51.33;;;25.90;;
31818;SDS011;18384;48.860;9.188;2022-12-15T12:44:41;46.60;;;25.05;;
31818;SDS011;18384;48.860;9.188;2022-12-15T12:47:29;42.97;;;23.85;;
31818;SDS011;18384;48.860;9.188;2022-12-15T12:50:02;50.20;;;23.60;;
31818;SDS011;18384;48.860;9.188;2022-12-15T12:52:45;44.90;;;23.33;;
31818;SDS011;18384;48.860;9.188;2022-12-15T12:55:23;45.45;;;24.12;;
31818;SDS011;18384;48.860;9.188;2022-12-15T13:01:03;44.50;;;22.83;;
31818;SDS011;18384;48.860;9.188;2022-12-15T13:03:44;44.13;;;23.75;;
31818;SDS011;18384;48.860;9.188;2022-12-15T13:14:24;42.67;;;22.75;;
31818;SDS011;18384;48.860;9.188;2022-12-15T13:17:28;44.90;;;24.27;;
31818;SDS011;18384;48.860;9.188;2022-12-15T13:22:45;46.75;;;23.20;;
31818;SDS011;18384;48.860;9.188;2022-12-15T13:34:20;42.70;;;21.12;;
31818;SDS011;18384;48.860;9.188;2022-12-15T13:36:52;65.93;;;29.08;;
31818;SDS011;18384;48.860;9.188;2022-12-15T13:39:31;48.55;;;25.15;;
31818;SDS011;18384;48.860;9.188;2022-12-15T13:42:23;39.50;;;20.88;;
31818;SDS011;18384;48.860;9.188;2022-12-15T13:44:51;43.10;;;23.17;;
31818;SDS011;18384;48.860;9.188;2022-12-15T13:47:28;42.65;;;21.80;;
31818;SDS011;18384;48.860;9.188;2022-12-15T13:50:03;44.67;;;22.25;;
31818;SDS011;18384;48.860;9.188;2022-12-15T13:52:45;48.45;;;24.12;;
31818;SDS011;18384;48.860;9.188;2022-12-15T13:55:20;46.35;;;23.02;;
31818;SDS011;18384;48.860;9.188;2022-12-15T13:57:50;42.47;;;22.30;;
31818;SDS011;18384;48.860;9.188;2022-12-15T14:00:24;41.63;;;20.92;;
31818;SDS011;18384;48.860;9.188;2022-12-15T14:02:50;48.22;;;23.20;;
31818;SDS011;18384;48.860;9.188;2022-12-15T14:05:31;44.88;;;22.73;;
31818;SDS011;18384;48.860;9.188;2022-12-15T14:10:38;42.62;;;21.80;;
31818;SDS011;18384;48.860;9.188;2022-12-15T14:13:27;55.12;;;24.98;;
31818;SDS011;18384;48.860;9.188;2022-12-15T14:15:58;46.75;;;23.75;;
31818;SDS011;18384;48.860;9.188;2022-12-15T14:18:41;43.95;;;23.05;;
31818;SDS011;18384;48.860;9.188;2022-12-15T14:21:18;47.47;;;24.37;;
31818;SDS011;18384;48.860;9.188;2022-12-15T14:23:51;62.97;;;26.55;;
31818;SDS011;18384;48.860;9.188;2022-12-15T14:28:57;43.38;;;22.00;;
31818;SDS011;18384;48.860;9.188;2022-12-15T14:31:26;48.42;;;21.65;;
31818;SDS011;18384;48.860;9.188;2022-12-15T14:34:02;44.58;;;23.70;;
31818;SDS011;18384;48.860;9.188;2022-12-15T14:36:38;48.83;;;22.20;;
31818;SDS011;18384;48.860;9.188;2022-12-15T14:39:11;40.35;;;19.87;;
31818;SDS011;18384;48.860;9.188;2022-12-15T14:42:06;37.92;;;21.08;;
31818;SDS011;18384;48.860;9.188;2022-12-15T14:44:46;41.33;;;20.80;;
31818;SDS011;18384;48.860;9.188;2022-12-15T14:47:19;46.65;;;21.77;;
31818;SDS011;18384;48.860;9.188;2022-12-15T14:49:51;38.90;;;21.25;;
31818;SDS011;18384;48.860;9.188;2022-12-15T14:52:34;42.58;;;20.92;;
31818;SDS011;18384;48.860;9.188;2022-12-15T14:55:51;38.05;;;21.30;;
31818;SDS011;18384;48.860;9.188;2022-12-15T14:58:22;37.90;;;21.30;;
31818;SDS011;18384;48.860;9.188;2022-12-15T15:00:59;40.72;;;20.92;;
31818;SDS011;18384;48.860;9.188;2022-12-15T15:03:34;39.47;;;20.67;;
31818;SDS011;18384;48.860;9.188;2022-12-15T15:06:16;43.15;;;20.83;;
31818;SDS011;18384;48.860;9.188;2022-12-15T15:08:50;38.13;;;19.92;;
31818;SDS011;18384;48.860;9.188;2022-12-15T15:16:03;37.22;;;19.30;;
31818;SDS011;18384;48.860;9.188;2022-12-15T15:18:32;35.28;;;18.00;;
31818;SDS011;18384;48.860;9.188;2022-12-15T15:21:00;34.70;;;18.70;;
31818;SDS011;18384;48.860;9.188;2022-12-15T15:23:30;34.55;;;18.02;;
31818;SDS011;18384;48.860;9.188;2022-12-15T15:26:07;36.88;;;19.67;;
31818;SDS011;18384;48.860;9.188;2022-12-15T15:28:41;37.58;;;18.40;;
31818;SDS011;18384;48.860;9.188;2022-12-15T15:31:26;39.13;;;18.70;;
31818;SDS011;18384;48.860;9.188;2022-12-15T15:33:56;34.47;;;17.80;;
31818;SDS011;18384;48.860;9.188;2022-12-15T15:36:27;36.00;;;19.02;;
31818;SDS011;18384;48.860;9.188;2022-12-15T15:39:00;34.65;;;17.58;;
31818;SDS011;18384;48.860;9.188;2022-12-15T15:41:34;32.30;;;17.55;;
31818;SDS011;18384;48.860;9.188;2022-12-15T15:44:00;31.27;;;16.75;;
31818;SDS011;18384;48.860;9.188;2022-12-15T15:46:27;30.42;;;17.58;;
31818;SDS011;18384;48.860;9.188;2022-12-15T15:48:57;35.55;;;17.75;;
31818;SDS011;18384;48.860;9.188;2022-12-15T15:51:32;34.40;;;18.15;;
31818;SDS011;18384;48.860;9.188;2022-12-15T15:54:06;32.80;;;17.58;;
31818;SDS011;18384;48.860;9.188;2022-12-15T15:56:38;29.67;;;16.75;;
31818;SDS011;18384;48.860;9.188;2022-12-15T15:59:12;32.35;;;17.35;;
31818;SDS011;18384;48.860;9.188;2022-12-15T16:01:44;34.75;;;16.62;;
31818;SDS011;18384;48.860;9.188;2022-12-15T16:04:16;30.42;;;15.38;;
31818;SDS011;18384;48.860;9.188;2022-12-15T16:06:42;32.90;;;16.92;;
31818;SDS011;18384;48.860;9.188;2022-12-15T16:09:08;29.48;;;17.10;;
31818;SDS011;18384;48.860;9.188;2022-12-15T16:11:39;36.40;;;17.27;;
31818;SDS011;18384;48.860;9.188;2022-12-15T16:14:09;28.92;;;16.42;;
31818;SDS011;18384;48.860;9.188;2022-12-15T16:16:38;32.63;;;17.15;;
31818;SDS011;18384;48.860;9.188;2022-12-15T16:19:05;33.30;;;17.40;;
31818;SDS011;18384;48.860;9.188;2022-12-15T16:23:59;36.10;;;18.15;;
31818;SDS011;18384;48.860;9.188;2022-12-15T16:26:33;32.25;;;17.00;;
31818;SDS011;18384;48.860;9.188;2022-12-15T16:29:05;35.72;;;17.37;;
31818;SDS011;18384;48.860;9.188;2022-12-15T16:31:42;34.70;;;17.65;;
31818;SDS011;18384;48.860;9.188;2022-12-15T16:34:09;39.92;;;18.20;;
31818;SDS011;18384;48.860;9.188;2022-12-15T16:36:37;33.33;;;17.33;;
31818;SDS011;18384;48.860;9.188;2022-12-15T16:39:09;33.20;;;17.83;;
31818;SDS011;18384;48.860;9.188;2022-12-15T16:42:00;37.15;;;17.10;;
31818;SDS011;18384;48.860;9.188;2022-12-15T16:44:27;36.42;;;19.23;;
31818;SDS011;18384;48.860;9.188;2022-12-15T16:46:53;37.20;;;21.15;;
31818;SDS011;18384;48.860;9.188;2022-12-15T16:49:19;34.05;;;18.77;;
31818;SDS011;18384;48.860;9.188;2022-12-15T16:51:47;38.88;;;19.33;;